RK8T weather

Public forecast

Using degrees Celsius for public forecast. Weather courtesy of forecast.io.

Closest aviation weather report (METAR) to N 305 Helipad

Closest report is Jeju International Airport, 51.1 nm (94.6 km) SW. Retrieved 2020/08/15 16:00 UTC (47 minutes ago):

RKPC 151600Z 27001KT CAVOK 26/24 Q1011 NOSIG

Closest aviation forecast (TAF) to N 305 Helipad

Closest forecast is Jeju International Airport, 51.1 nm (94.6 km) SW. Retrieved 2020/08/15 12:00 UTC (5 hours ago):

TAF RKPC 151100Z 1512/1618 08006KT CAVOK TN27/1520Z TX33/1605Z BECMG 1521/1522 23008KT BECMG 1602/1603 03008KT 9999 SCT030 BECMG 1609/1610 09006KT